createdAt,value
2022-12-23T00:00:02.053Z,9.36
2022-12-23T00:05:01.869Z,9.33
2022-12-23T00:10:02.183Z,9.33
2022-12-23T00:15:01.800Z,9.35
2022-12-23T00:20:02.216Z,9.29
2022-12-23T00:25:01.888Z,9.29
2022-12-23T00:30:02.013Z,9.22
2022-12-23T00:35:02.045Z,9.19
2022-12-23T00:40:06.615Z,9.15
2022-12-23T00:45:01.903Z,9.1
2022-12-23T00:50:01.975Z,9.12
2022-12-23T00:55:02.233Z,9.14
2022-12-23T01:00:01.675Z,9.15
2022-12-23T01:05:02.190Z,9.1
2022-12-23T01:10:01.505Z,9.09
2022-12-23T01:15:02.016Z,9.07
2022-12-23T01:20:01.924Z,9.11
2022-12-23T01:25:01.486Z,9.06
2022-12-23T01:30:01.847Z,9.07
2022-12-23T01:35:02.449Z,9.06
2022-12-23T01:40:01.342Z,9.07
2022-12-23T01:45:01.882Z,9.11
2022-12-23T01:50:02.021Z,9.1
2022-12-23T01:55:02.193Z,9.11
2022-12-23T02:00:01.593Z,9.02
2022-12-23T02:05:02.047Z,9.04
2022-12-23T02:10:01.611Z,9.08
2022-12-23T02:15:01.791Z,9.09
2022-12-23T02:20:01.929Z,9.11
2022-12-23T02:25:01.815Z,9.1
2022-12-23T02:30:02.144Z,9.1
2022-12-23T02:35:02.160Z,9.15
2022-12-23T02:40:02.077Z,9.19
2022-12-23T02:45:01.434Z,9.24
2022-12-23T02:50:01.964Z,9.24
2022-12-23T02:55:01.997Z,9.17
2022-12-23T03:00:02.143Z,9.18
2022-12-23T03:05:01.469Z,9.23
2022-12-23T03:10:01.394Z,9.24
2022-12-23T03:15:02.014Z,9.29
2022-12-23T03:20:01.496Z,9.34
2022-12-23T03:25:01.957Z,9.39
2022-12-23T03:30:01.559Z,9.35
2022-12-23T03:35:02.023Z,9.35
2022-12-23T03:40:01.753Z,9.35
2022-12-23T03:45:37.075Z,9.33
2022-12-23T03:50:01.710Z,9.34
2022-12-23T03:55:02.202Z,9.35
2022-12-23T04:00:01.323Z,9.3
2022-12-23T04:05:01.422Z,9.33
2022-12-23T04:10:01.750Z,9.26
2022-12-23T04:15:04.806Z,9.2
2022-12-23T04:20:02.224Z,9.11
2022-12-23T04:25:01.906Z,9.01
2022-12-23T04:30:02.036Z,8.95
2022-12-23T04:35:01.983Z,8.92
2022-12-23T04:40:01.367Z,8.91
2022-12-23T04:45:01.862Z,8.92
2022-12-23T04:50:01.871Z,8.97
2022-12-23T04:55:01.913Z,8.96
2022-12-23T05:00:01.291Z,8.93
2022-12-23T05:05:02.292Z,8.93
2022-12-23T05:10:01.334Z,8.92
2022-12-23T05:15:01.436Z,8.95
2022-12-23T05:20:02.020Z,8.88
2022-12-23T05:25:02.088Z,8.81
2022-12-23T05:30:02.127Z,8.76
2022-12-23T05:35:02.069Z,8.73
2022-12-23T05:40:01.982Z,8.74
2022-12-23T05:45:01.599Z,8.68
2022-12-23T05:50:01.698Z,8.68
2022-12-23T05:55:01.756Z,8.68
2022-12-23T06:00:01.783Z,8.73
2022-12-23T06:05:02.025Z,8.76
2022-12-23T06:10:02.189Z,8.83
2022-12-23T06:15:02.172Z,8.76
2022-12-23T06:20:01.834Z,8.78
2022-12-23T06:25:02.236Z,8.78
2022-12-23T06:30:02.054Z,8.79
2022-12-23T06:35:02.249Z,8.89
2022-12-23T06:40:02.175Z,8.91
2022-12-23T06:45:02.210Z,8.91
2022-12-23T06:50:02.250Z,8.91
2022-12-23T06:55:02.149Z,8.87
2022-12-23T07:00:02.176Z,8.85
2022-12-23T07:05:01.268Z,8.78
2022-12-23T07:10:01.656Z,8.77
2022-12-23T07:15:01.837Z,8.78
2022-12-23T07:20:01.522Z,8.77
2022-12-23T07:25:01.789Z,8.67
2022-12-23T07:30:01.901Z,8.71
2022-12-23T07:35:01.968Z,8.65
2022-12-23T07:40:08.020Z,8.65
2022-12-23T07:45:01.570Z,8.59
2022-12-23T07:50:01.396Z,8.59
2022-12-23T07:55:01.440Z,8.52
2022-12-23T08:00:02.272Z,8.42
2022-12-23T08:05:01.469Z,8.45
2022-12-23T08:10:01.998Z,8.38
2022-12-23T08:15:02.229Z,8.33
2022-12-23T08:20:01.365Z,8.36
2022-12-23T08:25:01.470Z,8.35
2022-12-23T08:30:01.900Z,8.34
2022-12-23T08:35:02.090Z,8.45
2022-12-23T08:40:02.054Z,8.5
2022-12-23T08:45:01.305Z,8.56
2022-12-23T08:50:01.497Z,8.62
2022-12-23T08:55:01.947Z,8.7
2022-12-23T09:00:02.024Z,8.71
2022-12-23T09:05:02.179Z,8.78
2022-12-23T09:10:01.466Z,8.8
2022-12-23T09:15:01.781Z,8.87
2022-12-23T09:20:02.196Z,8.88
2022-12-23T09:25:04.750Z,8.91
2022-12-23T09:30:01.542Z,8.88
2022-12-23T09:35:01.697Z,8.8
2022-12-23T09:40:01.975Z,8.73
2022-12-23T09:45:02.041Z,8.74
2022-12-23T09:50:02.124Z,8.76
2022-12-23T09:55:02.146Z,8.82
2022-12-23T10:00:02.134Z,8.81
2022-12-23T10:05:02.081Z,8.81
2022-12-23T10:10:02.016Z,8.89
2022-12-23T10:15:02.196Z,8.96
2022-12-23T10:20:01.642Z,8.88
2022-12-23T10:25:01.908Z,8.95
2022-12-23T10:30:14.229Z,9.14
2022-12-23T10:35:01.409Z,9.2
2022-12-23T10:40:01.636Z,9.35
2022-12-23T10:45:01.538Z,9.24
2022-12-23T10:50:01.582Z,9.46
2022-12-23T10:55:01.639Z,9.37
2022-12-23T11:00:01.672Z,9.36
2022-12-23T11:05:01.744Z,9.35
2022-12-23T11:10:02.054Z,9.33
2022-12-23T11:15:01.846Z,9.31
2022-12-23T11:20:02.134Z,9.39
2022-12-23T11:25:02.003Z,9.36
2022-12-23T11:30:01.956Z,9.23
2022-12-23T11:35:02.127Z,9.19
2022-12-23T11:40:02.009Z,9.07
2022-12-23T11:45:01.850Z,8.97
2022-12-23T11:50:01.805Z,8.98
2022-12-23T11:55:02.002Z,8.95
2022-12-23T12:00:02.004Z,8.91
2022-12-23T12:05:02.102Z,8.86
2022-12-23T12:10:02.174Z,8.86
2022-12-23T12:15:01.446Z,8.86
2022-12-23T12:20:01.673Z,8.85
2022-12-23T12:25:01.785Z,8.83
2022-12-23T12:30:07.712Z,8.88
2022-12-23T12:35:01.578Z,8.9
2022-12-23T12:40:01.705Z,8.91
2022-12-23T12:45:01.627Z,8.92
2022-12-23T12:50:01.834Z,8.92
2022-12-23T12:55:01.779Z,8.93
2022-12-23T13:00:06.498Z,8.97
2022-12-23T13:05:01.828Z,9.01
2022-12-23T13:10:02.107Z,9.04
2022-12-23T13:15:01.583Z,9.02
2022-12-23T13:20:02.099Z,9.05
2022-12-23T13:25:01.952Z,9.08
2022-12-23T13:30:02.227Z,9.14
2022-12-23T13:35:02.019Z,9.25
2022-12-23T13:40:02.041Z,9.27
2022-12-23T13:45:01.930Z,9.29
2022-12-23T13:50:02.103Z,9.33
2022-12-23T13:55:02.233Z,9.39
2022-12-23T14:00:05.981Z,9.49
2022-12-23T14:05:01.514Z,9.56
2022-12-23T14:10:02.250Z,9.67
2022-12-23T14:15:02.158Z,9.79
2022-12-23T14:20:02.259Z,9.84
2022-12-23T14:25:02.144Z,9.92
2022-12-23T14:30:06.029Z,10.03
2022-12-23T14:35:01.973Z,10.19
2022-12-23T14:40:01.930Z,10.24
2022-12-23T14:45:01.770Z,10.27
2022-12-23T14:50:02.045Z,10.28
2022-12-23T14:55:29.014Z,10.35
2022-12-23T15:00:01.538Z,10.41
2022-12-23T15:05:01.321Z,10.35
2022-12-23T15:10:01.783Z,10.37
2022-12-23T15:15:01.781Z,10.36
2022-12-23T15:20:01.804Z,10.39
2022-12-23T15:25:01.748Z,10.42
2022-12-23T15:30:01.777Z,10.5
2022-12-23T15:35:02.081Z,10.55
2022-12-23T15:40:11.882Z,10.66
2022-12-23T15:45:02.023Z,10.75
2022-12-23T15:50:01.938Z,10.77
2022-12-23T15:55:02.117Z,10.82
2022-12-23T16:00:01.416Z,10.84
2022-12-23T16:05:01.494Z,10.84
2022-12-23T16:10:01.665Z,10.84
2022-12-23T16:15:01.887Z,10.92
2022-12-23T16:20:01.362Z,11.09
2022-12-23T16:25:01.298Z,11.11
2022-12-23T16:30:01.518Z,11.1
2022-12-23T16:35:01.744Z,11.07
2022-12-23T16:40:01.710Z,11.05
2022-12-23T16:45:01.633Z,11.15
2022-12-23T16:50:02.083Z,11.17
2022-12-23T16:55:01.836Z,11.29
2022-12-23T17:00:01.916Z,11.31
2022-12-23T17:05:02.212Z,11.12
2022-12-23T17:10:01.514Z,10.98
2022-12-23T17:15:01.736Z,10.98
2022-12-23T17:20:01.832Z,11.01
2022-12-23T17:25:01.871Z,11.05
2022-12-23T17:30:02.078Z,11.05
2022-12-23T17:35:01.379Z,10.97
2022-12-23T17:40:01.719Z,10.9
2022-12-23T17:45:01.770Z,10.83
2022-12-23T17:50:01.818Z,10.93
2022-12-23T17:55:01.574Z,10.95
2022-12-23T18:00:01.689Z,11.02
2022-12-23T18:05:01.965Z,10.97
2022-12-23T18:10:01.961Z,10.85
2022-12-23T18:15:01.717Z,10.85
2022-12-23T18:20:01.811Z,10.92
2022-12-23T18:25:01.987Z,10.86
2022-12-23T18:30:02.052Z,10.86
2022-12-23T18:35:02.003Z,10.92
2022-12-23T18:40:01.798Z,10.81
2022-12-23T18:45:01.899Z,10.85
2022-12-23T18:50:02.080Z,10.98
2022-12-23T18:55:01.879Z,10.99
2022-12-23T19:00:02.139Z,10.92
2022-12-23T19:05:01.993Z,10.98
2022-12-23T19:10:02.173Z,11.15
2022-12-23T19:15:02.108Z,11.16
2022-12-23T19:20:01.615Z,11.13
2022-12-23T19:25:06.562Z,11.09
2022-12-23T19:30:01.367Z,11.03
2022-12-23T19:35:01.577Z,10.85
2022-12-23T19:40:01.641Z,10.93
2022-12-23T19:45:01.641Z,10.95
2022-12-23T19:50:01.850Z,10.89
2022-12-23T19:55:01.827Z,10.89
2022-12-23T20:00:01.739Z,10.87
2022-12-23T20:05:01.965Z,10.92
2022-12-23T20:10:02.184Z,10.98
2022-12-23T20:15:01.346Z,11.12
2022-12-23T20:20:02.256Z,11.02
2022-12-23T20:25:01.321Z,11.03
2022-12-23T20:30:01.740Z,11
2022-12-23T20:35:01.881Z,10.92
2022-12-23T20:40:01.522Z,10.86
2022-12-23T20:45:01.838Z,10.82
2022-12-23T20:50:01.977Z,10.8
2022-12-23T20:55:01.889Z,10.8
2022-12-23T21:00:01.685Z,10.78
2022-12-23T21:05:01.931Z,10.75
2022-12-23T21:10:02.174Z,10.78
2022-12-23T21:15:02.260Z,10.89
2022-12-23T21:20:07.260Z,10.89
2022-12-23T21:25:01.484Z,10.87
2022-12-23T21:30:01.719Z,10.79
2022-12-23T21:35:01.709Z,10.72
2022-12-23T21:40:01.751Z,10.7
2022-12-23T21:45:01.890Z,10.67
2022-12-23T21:50:02.200Z,10.55
2022-12-23T21:55:02.142Z,10.7
2022-12-23T22:00:01.937Z,10.7
2022-12-23T22:05:02.033Z,10.75
2022-12-23T22:10:02.105Z,10.72
2022-12-23T22:15:05.060Z,10.77
2022-12-23T22:20:02.022Z,10.71
2022-12-23T22:25:02.092Z,10.74
2022-12-23T22:30:01.491Z,10.77
2022-12-23T22:35:01.628Z,10.73
2022-12-23T22:40:01.754Z,10.77
2022-12-23T22:45:01.711Z,10.7
2022-12-23T22:50:01.933Z,10.66
2022-12-23T22:55:01.519Z,10.6
2022-12-23T23:00:07.869Z,10.56
2022-12-23T23:05:02.545Z,10.53
2022-12-23T23:10:02.077Z,10.51
2022-12-23T23:15:02.076Z,10.42
2022-12-23T23:20:01.358Z,10.35
2022-12-23T23:25:01.432Z,10.35
2022-12-23T23:30:01.352Z,10.35
2022-12-23T23:35:08.696Z,10.55
2022-12-23T23:40:01.542Z,10.51
2022-12-23T23:45:01.964Z,10.43
2022-12-23T23:50:02.136Z,10.42
2022-12-23T23:55:02.049Z,10.3
